sensor_id;sensor_type;location;lat;lon;timestamp;temperature;humidity
14409;DHT22;7289;50.706;4.992;2023-02-12T00:01:25;8.50;99.90
14409;DHT22;7289;50.706;4.992;2023-02-12T00:03:55;8.50;99.90
14409;DHT22;7289;50.706;4.992;2023-02-12T00:06:23;8.50;99.90
14409;DHT22;7289;50.706;4.992;2023-02-12T00:08:53;8.50;99.90
14409;DHT22;7289;50.706;4.992;2023-02-12T00:11:25;8.40;99.90
14409;DHT22;7289;50.706;4.992;2023-02-12T00:13:55;8.40;99.90
14409;DHT22;7289;50.706;4.992;2023-02-12T00:16:25;8.40;99.90
14409;DHT22;7289;50.706;4.992;2023-02-12T00:18:55;8.40;99.90
14409;DHT22;7289;50.706;4.992;2023-02-12T00:21:24;8.40;99.90
14409;DHT22;7289;50.706;4.992;2023-02-12T00:23:53;8.40;99.90
14409;DHT22;7289;50.706;4.992;2023-02-12T00:26:22;8.40;99.90
14409;DHT22;7289;50.706;4.992;2023-02-12T00:28:52;8.40;99.90
14409;DHT22;7289;50.706;4.992;2023-02-12T00:31:22;8.40;99.90
14409;DHT22;7289;50.706;4.992;2023-02-12T00:33:51;8.40;99.90
14409;DHT22;7289;50.706;4.992;2023-02-12T00:36:23;8.40;99.90
14409;DHT22;7289;50.706;4.992;2023-02-12T00:38:53;8.40;99.90
14409;DHT22;7289;50.706;4.992;2023-02-12T00:41:24;8.40;99.90
14409;DHT22;7289;50.706;4.992;2023-02-12T00:43:55;8.40;99.90
14409;DHT22;7289;50.706;4.992;2023-02-12T00:46:23;8.40;99.90
14409;DHT22;7289;50.706;4.992;2023-02-12T00:48:52;8.40;99.90
14409;DHT22;7289;50.706;4.992;2023-02-12T00:51:20;8.40;99.90
14409;DHT22;7289;50.706;4.992;2023-02-12T00:53:49;8.40;99.90
14409;DHT22;7289;50.706;4.992;2023-02-12T00:56:17;8.30;99.90
14409;DHT22;7289;50.706;4.992;2023-02-12T00:58:48;8.30;99.90
14409;DHT22;7289;50.706;4.992;2023-02-12T01:01:18;8.30;99.90
14409;DHT22;7289;50.706;4.992;2023-02-12T01:03:46;8.30;99.90
14409;DHT22;7289;50.706;4.992;2023-02-12T01:06:15;8.30;99.90
14409;DHT22;7289;50.706;4.992;2023-02-12T01:08:49;8.30;99.90
14409;DHT22;7289;50.706;4.992;2023-02-12T01:11:18;8.30;99.90
14409;DHT22;7289;50.706;4.992;2023-02-12T01:13:47;8.30;99.90
14409;DHT22;7289;50.706;4.992;2023-02-12T01:16:19;8.30;99.90
14409;DHT22;7289;50.706;4.992;2023-02-12T01:18:49;8.30;99.90
14409;DHT22;7289;50.706;4.992;2023-02-12T01:21:24;8.20;99.90
14409;DHT22;7289;50.706;4.992;2023-02-12T01:23:53;8.30;99.90
14409;DHT22;7289;50.706;4.992;2023-02-12T01:26:23;8.30;99.90
14409;DHT22;7289;50.706;4.992;2023-02-12T01:28:53;8.20;99.90
14409;DHT22;7289;50.706;4.992;2023-02-12T01:31:26;8.30;99.90
14409;DHT22;7289;50.706;4.992;2023-02-12T01:33:57;8.30;99.90
14409;DHT22;7289;50.706;4.992;2023-02-12T01:36:27;8.30;99.90
14409;DHT22;7289;50.706;4.992;2023-02-12T01:38:56;8.30;99.90
14409;DHT22;7289;50.706;4.992;2023-02-12T01:41:27;8.30;99.90
14409;DHT22;7289;50.706;4.992;2023-02-12T01:44:14;8.30;99.90
14409;DHT22;7289;50.706;4.992;2023-02-12T01:46:47;8.20;99.90
14409;DHT22;7289;50.706;4.992;2023-02-12T01:49:19;8.30;99.90
14409;DHT22;7289;50.706;4.992;2023-02-12T01:51:51;8.20;99.90
14409;DHT22;7289;50.706;4.992;2023-02-12T01:54:21;8.20;99.90
14409;DHT22;7289;50.706;4.992;2023-02-12T01:56:52;8.20;99.90
14409;DHT22;7289;50.706;4.992;2023-02-12T01:59:21;8.20;99.90
14409;DHT22;7289;50.706;4.992;2023-02-12T02:01:52;8.20;99.90
14409;DHT22;7289;50.706;4.992;2023-02-12T02:04:23;8.20;99.90
14409;DHT22;7289;50.706;4.992;2023-02-12T02:06:56;8.20;99.90
14409;DHT22;7289;50.706;4.992;2023-02-12T02:09:26;8.20;99.90
14409;DHT22;7289;50.706;4.992;2023-02-12T02:11:55;8.20;99.90
14409;DHT22;7289;50.706;4.992;2023-02-12T02:14:42;8.20;99.90
14409;DHT22;7289;50.706;4.992;2023-02-12T02:17:33;8.20;99.90
14409;DHT22;7289;50.706;4.992;2023-02-12T02:23:33;8.10;99.90
14409;DHT22;7289;50.706;4.992;2023-02-12T02:29:34;8.10;99.90
14409;DHT22;7289;50.706;4.992;2023-02-12T02:32:12;8.10;99.90
14409;DHT22;7289;50.706;4.992;2023-02-12T02:34:49;8.10;99.90
14409;DHT22;7289;50.706;4.992;2023-02-12T02:37:20;8.10;99.90
14409;DHT22;7289;50.706;4.992;2023-02-12T02:39:53;8.10;99.90
14409;DHT22;7289;50.706;4.992;2023-02-12T02:42:28;8.10;99.90
14409;DHT22;7289;50.706;4.992;2023-02-12T02:45:01;8.00;99.90
14409;DHT22;7289;50.706;4.992;2023-02-12T02:47:38;8.00;99.90
14409;DHT22;7289;50.706;4.992;2023-02-12T02:50:11;8.00;99.90
14409;DHT22;7289;50.706;4.992;2023-02-12T02:52:45;8.10;99.90
14409;DHT22;7289;50.706;4.992;2023-02-12T02:55:18;8.00;99.90
14409;DHT22;7289;50.706;4.992;2023-02-12T02:57:50;7.90;99.90
14409;DHT22;7289;50.706;4.992;2023-02-12T03:00:22;8.00;99.90
14409;DHT22;7289;50.706;4.992;2023-02-12T03:02:57;8.00;99.90
14409;DHT22;7289;50.706;4.992;2023-02-12T03:05:30;8.00;99.90
14409;DHT22;7289;50.706;4.992;2023-02-12T03:08:04;8.10;99.90
14409;DHT22;7289;50.706;4.992;2023-02-12T03:10:37;8.00;99.90
14409;DHT22;7289;50.706;4.992;2023-02-12T03:13:09;8.00;99.90
14409;DHT22;7289;50.706;4.992;2023-02-12T03:15:41;8.00;99.90
14409;DHT22;7289;50.706;4.992;2023-02-12T03:18:17;8.10;99.90
14409;DHT22;7289;50.706;4.992;2023-02-12T03:20:50;8.00;99.90
14409;DHT22;7289;50.706;4.992;2023-02-12T03:23:24;8.00;99.90
14409;DHT22;7289;50.706;4.992;2023-02-12T03:25:56;8.00;99.90
14409;DHT22;7289;50.706;4.992;2023-02-12T03:28:28;8.10;99.90
14409;DHT22;7289;50.706;4.992;2023-02-12T03:31:04;8.10;99.90
14409;DHT22;7289;50.706;4.992;2023-02-12T03:33:43;8.00;99.90
14409;DHT22;7289;50.706;4.992;2023-02-12T03:36:21;7.90;99.90
14409;DHT22;7289;50.706;4.992;2023-02-12T03:38:53;7.90;99.90
14409;DHT22;7289;50.706;4.992;2023-02-12T03:41:24;8.00;99.90
14409;DHT22;7289;50.706;4.992;2023-02-12T03:44:02;8.00;99.90
14409;DHT22;7289;50.706;4.992;2023-02-12T03:46:39;8.00;99.90
14409;DHT22;7289;50.706;4.992;2023-02-12T03:49:17;8.00;99.90
14409;DHT22;7289;50.706;4.992;2023-02-12T03:51:48;8.00;99.90
14409;DHT22;7289;50.706;4.992;2023-02-12T03:54:18;8.00;99.90
14409;DHT22;7289;50.706;4.992;2023-02-12T03:56:52;8.10;99.90
14409;DHT22;7289;50.706;4.992;2023-02-12T03:59:22;8.00;99.90
14409;DHT22;7289;50.706;4.992;2023-02-12T04:01:51;8.10;99.90
14409;DHT22;7289;50.706;4.992;2023-02-12T04:04:22;8.10;99.90
14409;DHT22;7289;50.706;4.992;2023-02-12T04:06:52;8.00;99.90
14409;DHT22;7289;50.706;4.992;2023-02-12T04:09:22;8.10;99.90
14409;DHT22;7289;50.706;4.992;2023-02-12T04:12:03;8.10;99.90
14409;DHT22;7289;50.706;4.992;2023-02-12T04:14:42;8.10;99.90
14409;DHT22;7289;50.706;4.992;2023-02-12T04:17:18;8.10;99.90
14409;DHT22;7289;50.706;4.992;2023-02-12T04:20:00;8.00;99.90
14409;DHT22;7289;50.706;4.992;2023-02-12T04:22:42;8.00;99.90
14409;DHT22;7289;50.706;4.992;2023-02-12T04:25:20;8.00;99.90
14409;DHT22;7289;50.706;4.992;2023-02-12T04:27:55;8.00;99.90
14409;DHT22;7289;50.706;4.992;2023-02-12T04:30:27;8.00;99.90
14409;DHT22;7289;50.706;4.992;2023-02-12T04:33:00;8.00;99.90
14409;DHT22;7289;50.706;4.992;2023-02-12T04:35:32;8.00;99.90
14409;DHT22;7289;50.706;4.992;2023-02-12T04:38:06;8.00;99.90
14409;DHT22;7289;50.706;4.992;2023-02-12T04:40:38;8.00;99.90
14409;DHT22;7289;50.706;4.992;2023-02-12T04:43:07;8.00;99.90
14409;DHT22;7289;50.706;4.992;2023-02-12T04:45:36;8.00;99.90
14409;DHT22;7289;50.706;4.992;2023-02-12T04:48:05;8.00;99.90
14409;DHT22;7289;50.706;4.992;2023-02-12T04:50:39;8.00;99.90
14409;DHT22;7289;50.706;4.992;2023-02-12T04:53:09;8.10;99.90
14409;DHT22;7289;50.706;4.992;2023-02-12T04:55:37;8.00;99.90
14409;DHT22;7289;50.706;4.992;2023-02-12T04:58:06;7.90;99.90
14409;DHT22;7289;50.706;4.992;2023-02-12T05:00:34;7.80;99.90
14409;DHT22;7289;50.706;4.992;2023-02-12T05:03:03;7.90;99.90
14409;DHT22;7289;50.706;4.992;2023-02-12T05:05:32;7.90;99.90
14409;DHT22;7289;50.706;4.992;2023-02-12T05:08:01;7.90;99.90
14409;DHT22;7289;50.706;4.992;2023-02-12T05:10:30;7.90;99.90
14409;DHT22;7289;50.706;4.992;2023-02-12T05:12:58;7.90;99.90
14409;DHT22;7289;50.706;4.992;2023-02-12T05:15:27;8.00;99.90
14409;DHT22;7289;50.706;4.992;2023-02-12T05:17:55;8.00;99.90
14409;DHT22;7289;50.706;4.992;2023-02-12T05:20:23;8.00;99.90
14409;DHT22;7289;50.706;4.992;2023-02-12T05:22:52;8.00;99.90
14409;DHT22;7289;50.706;4.992;2023-02-12T05:25:22;8.00;99.90
14409;DHT22;7289;50.706;4.992;2023-02-12T05:27:50;8.00;99.90
14409;DHT22;7289;50.706;4.992;2023-02-12T05:30:19;8.00;99.90
14409;DHT22;7289;50.706;4.992;2023-02-12T05:32:47;8.00;99.90
14409;DHT22;7289;50.706;4.992;2023-02-12T05:35:15;8.00;99.90
14409;DHT22;7289;50.706;4.992;2023-02-12T05:37:44;8.00;99.90
14409;DHT22;7289;50.706;4.992;2023-02-12T05:40:13;8.00;99.90
14409;DHT22;7289;50.706;4.992;2023-02-12T05:42:43;8.00;99.90
14409;DHT22;7289;50.706;4.992;2023-02-12T05:45:11;8.00;99.90
14409;DHT22;7289;50.706;4.992;2023-02-12T05:47:39;8.00;99.90
14409;DHT22;7289;50.706;4.992;2023-02-12T05:50:08;8.10;99.90
14409;DHT22;7289;50.706;4.992;2023-02-12T05:52:37;8.00;99.90
14409;DHT22;7289;50.706;4.992;2023-02-12T05:55:06;8.00;99.90
14409;DHT22;7289;50.706;4.992;2023-02-12T05:57:35;8.00;99.90
14409;DHT22;7289;50.706;4.992;2023-02-12T06:00:07;8.00;99.90
14409;DHT22;7289;50.706;4.992;2023-02-12T06:02:38;8.00;99.90
14409;DHT22;7289;50.706;4.992;2023-02-12T06:05:06;8.00;99.90
14409;DHT22;7289;50.706;4.992;2023-02-12T06:07:35;8.00;99.90
14409;DHT22;7289;50.706;4.992;2023-02-12T06:10:04;8.00;99.90
14409;DHT22;7289;50.706;4.992;2023-02-12T06:12:32;8.00;99.90
14409;DHT22;7289;50.706;4.992;2023-02-12T06:15:01;8.00;99.90
14409;DHT22;7289;50.706;4.992;2023-02-12T06:17:32;8.10;99.90
14409;DHT22;7289;50.706;4.992;2023-02-12T06:20:01;8.10;99.90
14409;DHT22;7289;50.706;4.992;2023-02-12T06:22:29;8.10;99.90
14409;DHT22;7289;50.706;4.992;2023-02-12T06:24:57;8.10;99.90
14409;DHT22;7289;50.706;4.992;2023-02-12T06:27:26;8.10;99.90
14409;DHT22;7289;50.706;4.992;2023-02-12T06:29:54;8.10;99.90
14409;DHT22;7289;50.706;4.992;2023-02-12T06:32:22;8.10;99.90
14409;DHT22;7289;50.706;4.992;2023-02-12T06:34:53;8.10;99.90
14409;DHT22;7289;50.706;4.992;2023-02-12T06:37:21;8.10;99.90
14409;DHT22;7289;50.706;4.992;2023-02-12T06:39:49;8.10;99.90
14409;DHT22;7289;50.706;4.992;2023-02-12T06:42:17;8.10;99.90
14409;DHT22;7289;50.706;4.992;2023-02-12T06:44:46;8.10;99.90
14409;DHT22;7289;50.706;4.992;2023-02-12T06:47:17;8.10;99.90
14409;DHT22;7289;50.706;4.992;2023-02-12T06:49:46;8.10;99.90
14409;DHT22;7289;50.706;4.992;2023-02-12T06:52:15;8.00;99.90
14409;DHT22;7289;50.706;4.992;2023-02-12T06:54:44;8.00;99.90
14409;DHT22;7289;50.706;4.992;2023-02-12T06:57:12;8.00;99.90
14409;DHT22;7289;50.706;4.992;2023-02-12T06:59:40;8.00;99.90
14409;DHT22;7289;50.706;4.992;2023-02-12T07:02:09;8.10;99.90
14409;DHT22;7289;50.706;4.992;2023-02-12T07:04:38;8.10;99.90
14409;DHT22;7289;50.706;4.992;2023-02-12T07:07:06;8.10;99.90
14409;DHT22;7289;50.706;4.992;2023-02-12T07:09:36;8.10;99.90
14409;DHT22;7289;50.706;4.992;2023-02-12T07:12:05;8.10;99.90
14409;DHT22;7289;50.706;4.992;2023-02-12T07:14:33;8.00;99.90
14409;DHT22;7289;50.706;4.992;2023-02-12T07:17:01;8.10;99.90
14409;DHT22;7289;50.706;4.992;2023-02-12T07:19:31;8.10;99.90
14409;DHT22;7289;50.706;4.992;2023-02-12T07:21:59;8.10;99.90
14409;DHT22;7289;50.706;4.992;2023-02-12T07:24:28;8.10;99.90
14409;DHT22;7289;50.706;4.992;2023-02-12T07:26:57;8.10;99.90
14409;DHT22;7289;50.706;4.992;2023-02-12T07:29:26;8.10;99.90
14409;DHT22;7289;50.706;4.992;2023-02-12T07:31:54;8.10;99.90
14409;DHT22;7289;50.706;4.992;2023-02-12T07:34:23;8.10;99.90
14409;DHT22;7289;50.706;4.992;2023-02-12T07:36:51;8.10;99.90
14409;DHT22;7289;50.706;4.992;2023-02-12T07:39:19;8.10;99.90
14409;DHT22;7289;50.706;4.992;2023-02-12T07:41:48;8.10;99.90
14409;DHT22;7289;50.706;4.992;2023-02-12T07:44:18;8.10;99.90
14409;DHT22;7289;50.706;4.992;2023-02-12T07:46:48;8.10;99.90
14409;DHT22;7289;50.706;4.992;2023-02-12T07:49:18;8.10;99.90
14409;DHT22;7289;50.706;4.992;2023-02-12T07:51:47;8.10;99.90
14409;DHT22;7289;50.706;4.992;2023-02-12T07:54:16;8.10;99.90
14409;DHT22;7289;50.706;4.992;2023-02-12T07:56:44;8.20;99.90
14409;DHT22;7289;50.706;4.992;2023-02-12T07:59:15;8.20;99.90
14409;DHT22;7289;50.706;4.992;2023-02-12T08:01:47;8.20;99.90
14409;DHT22;7289;50.706;4.992;2023-02-12T08:04:18;8.20;99.90
14409;DHT22;7289;50.706;4.992;2023-02-12T08:06:48;8.20;99.90
14409;DHT22;7289;50.706;4.992;2023-02-12T08:09:18;8.20;99.90
14409;DHT22;7289;50.706;4.992;2023-02-12T08:11:47;8.20;99.90
14409;DHT22;7289;50.706;4.992;2023-02-12T08:14:17;8.20;99.90
14409;DHT22;7289;50.706;4.992;2023-02-12T08:16:49;8.30;99.90
14409;DHT22;7289;50.706;4.992;2023-02-12T08:19:18;8.20;99.90
14409;DHT22;7289;50.706;4.992;2023-02-12T08:21:53;8.20;99.90
14409;DHT22;7289;50.706;4.992;2023-02-12T08:24:22;8.20;99.90
14409;DHT22;7289;50.706;4.992;2023-02-12T08:26:51;8.00;99.90
14409;DHT22;7289;50.706;4.992;2023-02-12T08:29:21;8.10;99.90
14409;DHT22;7289;50.706;4.992;2023-02-12T08:31:56;8.20;99.90
14409;DHT22;7289;50.706;4.992;2023-02-12T08:34:26;8.30;99.90
14409;DHT22;7289;50.706;4.992;2023-02-12T08:36:55;8.40;99.90
14409;DHT22;7289;50.706;4.992;2023-02-12T08:39:26;8.50;99.90
14409;DHT22;7289;50.706;4.992;2023-02-12T08:41:56;8.50;99.90
14409;DHT22;7289;50.706;4.992;2023-02-12T08:44:24;8.60;99.90
14409;DHT22;7289;50.706;4.992;2023-02-12T08:46:54;8.70;99.90
14409;DHT22;7289;50.706;4.992;2023-02-12T08:49:24;8.70;99.90
14409;DHT22;7289;50.706;4.992;2023-02-12T08:51:54;8.80;99.90
14409;DHT22;7289;50.706;4.992;2023-02-12T08:54:25;8.90;99.90
14409;DHT22;7289;50.706;4.992;2023-02-12T08:56:54;8.90;99.90
14409;DHT22;7289;50.706;4.992;2023-02-12T08:59:23;8.80;99.90
14409;DHT22;7289;50.706;4.992;2023-02-12T09:01:53;8.70;99.90
14409;DHT22;7289;50.706;4.992;2023-02-12T09:04:23;8.80;99.90
14409;DHT22;7289;50.706;4.992;2023-02-12T09:06:52;8.70;99.90
14409;DHT22;7289;50.706;4.992;2023-02-12T09:09:21;8.70;99.90
14409;DHT22;7289;50.706;4.992;2023-02-12T09:11:49;8.80;99.90
14409;DHT22;7289;50.706;4.992;2023-02-12T09:14:18;8.90;99.90
14409;DHT22;7289;50.706;4.992;2023-02-12T09:16:51;9.00;99.90
14409;DHT22;7289;50.706;4.992;2023-02-12T09:19:21;9.00;99.90
14409;DHT22;7289;50.706;4.992;2023-02-12T09:21:51;9.10;99.90
14409;DHT22;7289;50.706;4.992;2023-02-12T09:24:22;9.20;99.90
14409;DHT22;7289;50.706;4.992;2023-02-12T09:26:50;9.20;99.90
14409;DHT22;7289;50.706;4.992;2023-02-12T09:29:19;9.20;99.90
14409;DHT22;7289;50.706;4.992;2023-02-12T09:31:47;9.30;99.90
14409;DHT22;7289;50.706;4.992;2023-02-12T09:34:16;9.30;99.90
14409;DHT22;7289;50.706;4.992;2023-02-12T09:36:45;9.30;99.90
14409;DHT22;7289;50.706;4.992;2023-02-12T09:39:14;9.40;99.90
14409;DHT22;7289;50.706;4.992;2023-02-12T09:42:05;9.40;99.90
14409;DHT22;7289;50.706;4.992;2023-02-12T09:44:43;9.50;99.90
14409;DHT22;7289;50.706;4.992;2023-02-12T09:47:18;9.60;99.90
14409;DHT22;7289;50.706;4.992;2023-02-12T09:50:05;9.70;99.90
14409;DHT22;7289;50.706;4.992;2023-02-12T09:52:40;9.70;99.90
14409;DHT22;7289;50.706;4.992;2023-02-12T09:55:12;9.80;99.90
14409;DHT22;7289;50.706;4.992;2023-02-12T09:57:41;9.80;99.90
14409;DHT22;7289;50.706;4.992;2023-02-12T10:00:14;9.70;99.90
14409;DHT22;7289;50.706;4.992;2023-02-12T10:02:43;9.70;99.90
14409;DHT22;7289;50.706;4.992;2023-02-12T10:05:15;9.70;99.90
14409;DHT22;7289;50.706;4.992;2023-02-12T10:07:57;9.70;99.90
14409;DHT22;7289;50.706;4.992;2023-02-12T10:10:41;9.70;99.90
14409;DHT22;7289;50.706;4.992;2023-02-12T10:13:16;9.70;99.90
14409;DHT22;7289;50.706;4.992;2023-02-12T10:15:52;10.00;99.90
14409;DHT22;7289;50.706;4.992;2023-02-12T10:18:46;10.10;99.90
14409;DHT22;7289;50.706;4.992;2023-02-12T10:21:26;10.10;99.90
14409;DHT22;7289;50.706;4.992;2023-02-12T10:24:11;10.20;99.90
14409;DHT22;7289;50.706;4.992;2023-02-12T10:26:48;10.40;99.90
14409;DHT22;7289;50.706;4.992;2023-02-12T10:29:20;10.40;99.90
14409;DHT22;7289;50.706;4.992;2023-02-12T10:31:52;10.50;99.90
14409;DHT22;7289;50.706;4.992;2023-02-12T10:34:32;10.40;99.90
14409;DHT22;7289;50.706;4.992;2023-02-12T10:37:04;10.40;99.90
14409;DHT22;7289;50.706;4.992;2023-02-12T10:39:41;10.50;99.90
14409;DHT22;7289;50.706;4.992;2023-02-12T10:42:13;10.60;99.90
14409;DHT22;7289;50.706;4.992;2023-02-12T10:44:43;10.20;99.90
14409;DHT22;7289;50.706;4.992;2023-02-12T10:47:17;10.20;99.90
14409;DHT22;7289;50.706;4.992;2023-02-12T10:49:51;10.20;99.90
14409;DHT22;7289;50.706;4.992;2023-02-12T10:52:33;10.20;99.90
14409;DHT22;7289;50.706;4.992;2023-02-12T10:55:25;10.30;99.90
14409;DHT22;7289;50.706;4.992;2023-02-12T10:57:56;10.50;99.90
14409;DHT22;7289;50.706;4.992;2023-02-12T11:00:29;10.60;99.90
14409;DHT22;7289;50.706;4.992;2023-02-12T11:03:02;10.70;99.90
14409;DHT22;7289;50.706;4.992;2023-02-12T11:05:32;10.80;99.90
14409;DHT22;7289;50.706;4.992;2023-02-12T11:08:02;10.20;99.90
14409;DHT22;7289;50.706;4.992;2023-02-12T11:10:36;10.00;99.90
14409;DHT22;7289;50.706;4.992;2023-02-12T11:13:06;10.20;99.90
14409;DHT22;7289;50.706;4.992;2023-02-12T11:15:49;10.00;99.90
14409;DHT22;7289;50.706;4.992;2023-02-12T11:18:21;10.00;99.90
14409;DHT22;7289;50.706;4.992;2023-02-12T11:20:55;10.10;99.90
14409;DHT22;7289;50.706;4.992;2023-02-12T11:23:26;10.20;99.90
14409;DHT22;7289;50.706;4.992;2023-02-12T11:25:59;10.20;99.90
14409;DHT22;7289;50.706;4.992;2023-02-12T11:28:29;10.20;99.90
14409;DHT22;7289;50.706;4.992;2023-02-12T11:30:59;10.40;99.90
14409;DHT22;7289;50.706;4.992;2023-02-12T11:33:31;10.20;99.90
14409;DHT22;7289;50.706;4.992;2023-02-12T11:36:03;10.30;99.90
14409;DHT22;7289;50.706;4.992;2023-02-12T11:38:35;10.50;99.90
14409;DHT22;7289;50.706;4.992;2023-02-12T11:41:23;10.70;99.90
14409;DHT22;7289;50.706;4.992;2023-02-12T11:43:55;10.90;99.90
14409;DHT22;7289;50.706;4.992;2023-02-12T11:46:24;10.50;99.90
14409;DHT22;7289;50.706;4.992;2023-02-12T11:48:55;10.20;99.90
14409;DHT22;7289;50.706;4.992;2023-02-12T11:51:28;10.10;99.90
14409;DHT22;7289;50.706;4.992;2023-02-12T11:53:59;10.40;99.90
14409;DHT22;7289;50.706;4.992;2023-02-12T11:56:41;10.60;99.90
14409;DHT22;7289;50.706;4.992;2023-02-12T11:59:21;10.60;99.90
14409;DHT22;7289;50.706;4.992;2023-02-12T12:01:52;10.50;99.90
14409;DHT22;7289;50.706;4.992;2023-02-12T12:04:22;10.50;99.90
14409;DHT22;7289;50.706;4.992;2023-02-12T12:06:57;10.60;99.90
14409;DHT22;7289;50.706;4.992;2023-02-12T12:09:33;10.80;99.90
14409;DHT22;7289;50.706;4.992;2023-02-12T12:12:09;10.80;99.90
14409;DHT22;7289;50.706;4.992;2023-02-12T12:14:43;10.90;99.90
14409;DHT22;7289;50.706;4.992;2023-02-12T12:17:45;11.00;99.90
14409;DHT22;7289;50.706;4.992;2023-02-12T12:20:44;11.20;99.90
14409;DHT22;7289;50.706;4.992;2023-02-12T12:23:18;11.30;99.90
14409;DHT22;7289;50.706;4.992;2023-02-12T12:25:50;11.30;99.90
14409;DHT22;7289;50.706;4.992;2023-02-12T12:28:27;11.10;99.90
14409;DHT22;7289;50.706;4.992;2023-02-12T12:31:08;11.10;99.90
14409;DHT22;7289;50.706;4.992;2023-02-12T12:33:42;11.20;99.90
14409;DHT22;7289;50.706;4.992;2023-02-12T12:36:33;11.10;99.90
14409;DHT22;7289;50.706;4.992;2023-02-12T12:39:14;10.90;99.90
14409;DHT22;7289;50.706;4.992;2023-02-12T12:41:57;10.70;99.90
14409;DHT22;7289;50.706;4.992;2023-02-12T12:44:45;10.70;99.90
14409;DHT22;7289;50.706;4.992;2023-02-12T12:47:21;10.90;99.90
14409;DHT22;7289;50.706;4.992;2023-02-12T12:50:02;10.80;99.90
14409;DHT22;7289;50.706;4.992;2023-02-12T12:53:03;10.80;99.90
14409;DHT22;7289;50.706;4.992;2023-02-12T12:55:51;10.70;99.90
14409;DHT22;7289;50.706;4.992;2023-02-12T12:58:31;11.00;99.90
14409;DHT22;7289;50.706;4.992;2023-02-12T13:01:23;11.00;99.90
14409;DHT22;7289;50.706;4.992;2023-02-12T13:04:11;11.00;99.90
14409;DHT22;7289;50.706;4.992;2023-02-12T13:06:55;11.30;99.90
14409;DHT22;7289;50.706;4.992;2023-02-12T13:12:40;11.20;99.90
14409;DHT22;7289;50.706;4.992;2023-02-12T13:15:19;11.10;99.90
14409;DHT22;7289;50.706;4.992;2023-02-12T13:17:56;11.10;99.90
14409;DHT22;7289;50.706;4.992;2023-02-12T13:20:35;11.00;99.90
14409;DHT22;7289;50.706;4.992;2023-02-12T13:23:10;11.20;99.90
14409;DHT22;7289;50.706;4.992;2023-02-12T13:25:49;11.00;99.90
14409;DHT22;7289;50.706;4.992;2023-02-12T13:28:28;11.20;99.90
14409;DHT22;7289;50.706;4.992;2023-02-12T13:30:59;11.10;99.90
14409;DHT22;7289;50.706;4.992;2023-02-12T13:33:41;11.10;99.90
14409;DHT22;7289;50.706;4.992;2023-02-12T13:36:11;11.00;99.90
14409;DHT22;7289;50.706;4.992;2023-02-12T13:38:45;10.80;99.90
14409;DHT22;7289;50.706;4.992;2023-02-12T13:41:15;10.50;99.90
14409;DHT22;7289;50.706;4.992;2023-02-12T13:43:55;10.50;99.90
14409;DHT22;7289;50.706;4.992;2023-02-12T13:46:34;10.60;99.90
14409;DHT22;7289;50.706;4.992;2023-02-12T13:49:15;10.60;99.90
14409;DHT22;7289;50.706;4.992;2023-02-12T13:51:47;10.80;99.90
14409;DHT22;7289;50.706;4.992;2023-02-12T13:54:30;10.60;99.90
14409;DHT22;7289;50.706;4.992;2023-02-12T13:57:08;10.60;99.90
14409;DHT22;7289;50.706;4.992;2023-02-12T13:59:40;10.80;99.90
14409;DHT22;7289;50.706;4.992;2023-02-12T14:02:41;10.70;99.90
14409;DHT22;7289;50.706;4.992;2023-02-12T14:05:19;10.60;99.90
14409;DHT22;7289;50.706;4.992;2023-02-12T14:07:49;10.70;99.90
14409;DHT22;7289;50.706;4.992;2023-02-12T14:10:21;10.80;99.90
14409;DHT22;7289;50.706;4.992;2023-02-12T14:12:50;10.80;99.90
14409;DHT22;7289;50.706;4.992;2023-02-12T14:15:31;10.80;99.90
14409;DHT22;7289;50.706;4.992;2023-02-12T14:18:23;10.70;99.90
14409;DHT22;7289;50.706;4.992;2023-02-12T14:24:45;10.80;99.90
14409;DHT22;7289;50.706;4.992;2023-02-12T14:27:22;10.70;99.90
14409;DHT22;7289;50.706;4.992;2023-02-12T14:30:02;10.60;99.90
14409;DHT22;7289;50.706;4.992;2023-02-12T14:35:45;10.60;99.90
14409;DHT22;7289;50.706;4.992;2023-02-12T14:41:36;10.80;99.90
14409;DHT22;7289;50.706;4.992;2023-02-12T14:44:42;10.50;99.90
14409;DHT22;7289;50.706;4.992;2023-02-12T14:50:16;10.40;99.90
14409;DHT22;7289;50.706;4.992;2023-02-12T14:52:50;10.40;99.90
14409;DHT22;7289;50.706;4.992;2023-02-12T14:55:24;10.40;99.90
14409;DHT22;7289;50.706;4.992;2023-02-12T14:57:59;10.30;99.90
14409;DHT22;7289;50.706;4.992;2023-02-12T15:00:32;10.30;99.90
14409;DHT22;7289;50.706;4.992;2023-02-12T15:03:12;10.40;99.90
14409;DHT22;7289;50.706;4.992;2023-02-12T15:05:48;10.50;99.90
14409;DHT22;7289;50.706;4.992;2023-02-12T15:08:27;10.60;99.90
14409;DHT22;7289;50.706;4.992;2023-02-12T15:11:01;10.70;99.90
14409;DHT22;7289;50.706;4.992;2023-02-12T15:13:42;10.60;99.90
14409;DHT22;7289;50.706;4.992;2023-02-12T15:16:19;10.40;99.90
14409;DHT22;7289;50.706;4.992;2023-02-12T15:18:55;10.30;99.90
14409;DHT22;7289;50.706;4.992;2023-02-12T15:21:26;10.20;99.90
14409;DHT22;7289;50.706;4.992;2023-02-12T15:24:00;10.30;99.90
14409;DHT22;7289;50.706;4.992;2023-02-12T15:26:32;10.40;99.90
14409;DHT22;7289;50.706;4.992;2023-02-12T15:29:03;10.30;99.90
14409;DHT22;7289;50.706;4.992;2023-02-12T15:31:32;10.20;99.90
14409;DHT22;7289;50.706;4.992;2023-02-12T15:34:02;10.40;99.90
14409;DHT22;7289;50.706;4.992;2023-02-12T15:36:32;10.40;99.90
14409;DHT22;7289;50.706;4.992;2023-02-12T15:39:05;10.20;99.90
14409;DHT22;7289;50.706;4.992;2023-02-12T15:41:38;10.30;99.90
14409;DHT22;7289;50.706;4.992;2023-02-12T15:44:23;10.30;99.90
14409;DHT22;7289;50.706;4.992;2023-02-12T15:47:09;10.20;99.90
14409;DHT22;7289;50.706;4.992;2023-02-12T15:49:39;10.30;99.90
14409;DHT22;7289;50.706;4.992;2023-02-12T15:52:10;10.30;99.90
14409;DHT22;7289;50.706;4.992;2023-02-12T15:54:43;10.30;99.90
14409;DHT22;7289;50.706;4.992;2023-02-12T15:57:17;10.30;99.90
14409;DHT22;7289;50.706;4.992;2023-02-12T15:59:51;10.30;99.90
14409;DHT22;7289;50.706;4.992;2023-02-12T16:02:24;10.30;99.90
14409;DHT22;7289;50.706;4.992;2023-02-12T16:04:54;10.30;99.90
14409;DHT22;7289;50.706;4.992;2023-02-12T16:07:23;10.10;99.90
14409;DHT22;7289;50.706;4.992;2023-02-12T16:09:53;10.10;99.90
14409;DHT22;7289;50.706;4.992;2023-02-12T16:12:24;10.00;99.90
14409;DHT22;7289;50.706;4.992;2023-02-12T16:14:57;10.10;99.90
14409;DHT22;7289;50.706;4.992;2023-02-12T16:17:28;10.10;99.90
14409;DHT22;7289;50.706;4.992;2023-02-12T16:19:59;10.10;99.90
14409;DHT22;7289;50.706;4.992;2023-02-12T16:22:30;10.20;99.90
14409;DHT22;7289;50.706;4.992;2023-02-12T16:25:00;10.20;99.90
14409;DHT22;7289;50.706;4.992;2023-02-12T16:27:30;10.20;99.90
14409;DHT22;7289;50.706;4.992;2023-02-12T16:30:03;10.10;99.90
14409;DHT22;7289;50.706;4.992;2023-02-12T16:32:34;10.10;99.90
14409;DHT22;7289;50.706;4.992;2023-02-12T16:35:21;10.00;99.90
14409;DHT22;7289;50.706;4.992;2023-02-12T16:37:51;9.90;99.90
14409;DHT22;7289;50.706;4.992;2023-02-12T16:40:28;9.80;99.90
14409;DHT22;7289;50.706;4.992;2023-02-12T16:42:59;9.80;99.90
14409;DHT22;7289;50.706;4.992;2023-02-12T16:45:42;9.70;99.90
14409;DHT22;7289;50.706;4.992;2023-02-12T16:48:20;9.80;99.90
14409;DHT22;7289;50.706;4.992;2023-02-12T16:50:54;9.70;99.90
14409;DHT22;7289;50.706;4.992;2023-02-12T16:53:30;9.80;99.90
14409;DHT22;7289;50.706;4.992;2023-02-12T16:56:01;9.70;99.90
14409;DHT22;7289;50.706;4.992;2023-02-12T16:58:29;9.70;99.90